Aviation Digital Data Service (ADDS)

Output produced by METARs form (2211 UTC 01 February 2023)
found at http://www.aviationweather.gov/metar/data/
 
KMCO 012153Z 30005KT 10SM FEW047 BKN060 27/17 A3015 RMK AO2 SLP207 T02720167
KMCO 012103Z 0121/0224 31007KT P6SM FEW045 BKN060 
     FM020000 VRB03KT P6SM FEW040 
     TEMPO 0209/0213 3SM BR SCT006 
     FM021500 23006KT P6SM FEW030 SCT250 
     FM021800 23009KT P6SM SCT035 SCT250